sensor_id;sensor_type;location;lat;lon;timestamp;P1;durP1;ratioP1;P2;durP2;ratioP2
18999;SDS011;9633;50.980;13.850;2023-08-24T00:00:07;8.40;;;7.60;;
18999;SDS011;9633;50.980;13.850;2023-08-24T00:01:42;7.90;;;7.20;;
18999;SDS011;9633;50.980;13.850;2023-08-24T00:03:14;8.30;;;7.50;;
18999;SDS011;9633;50.980;13.850;2023-08-24T00:04:47;8.43;;;7.40;;
18999;SDS011;9633;50.980;13.850;2023-08-24T00:06:20;8.33;;;7.57;;
18999;SDS011;9633;50.980;13.850;2023-08-24T00:07:54;8.47;;;7.67;;
18999;SDS011;9633;50.980;13.850;2023-08-24T00:09:26;9.03;;;8.13;;
18999;SDS011;9633;50.980;13.850;2023-08-24T00:10:59;8.50;;;7.77;;
18999;SDS011;9633;50.980;13.850;2023-08-24T00:12:32;7.80;;;7.10;;
18999;SDS011;9633;50.980;13.850;2023-08-24T00:14:05;7.93;;;7.13;;
18999;SDS011;9633;50.980;13.850;2023-08-24T00:15:40;8.77;;;7.97;;
18999;SDS011;9633;50.980;13.850;2023-08-24T00:17:12;7.90;;;7.20;;
18999;SDS011;9633;50.980;13.850;2023-08-24T00:18:46;10.43;;;7.93;;
18999;SDS011;9633;50.980;13.850;2023-08-24T00:20:18;8.27;;;7.47;;
18999;SDS011;9633;50.980;13.850;2023-08-24T00:21:52;8.00;;;7.20;;
18999;SDS011;9633;50.980;13.850;2023-08-24T00:23:25;8.40;;;7.03;;
18999;SDS011;9633;50.980;13.850;2023-08-24T00:24:57;7.77;;;7.10;;
18999;SDS011;9633;50.980;13.850;2023-08-24T00:26:30;10.60;;;7.10;;
18999;SDS011;9633;50.980;13.850;2023-08-24T00:28:04;8.67;;;7.50;;
18999;SDS011;9633;50.980;13.850;2023-08-24T00:29:36;7.90;;;7.20;;
18999;SDS011;9633;50.980;13.850;2023-08-24T00:31:11;7.73;;;7.03;;
18999;SDS011;9633;50.980;13.850;2023-08-24T00:32:43;7.97;;;7.30;;
18999;SDS011;9633;50.980;13.850;2023-08-24T00:34:16;8.97;;;7.40;;
18999;SDS011;9633;50.980;13.850;2023-08-24T00:35:49;7.77;;;7.13;;
18999;SDS011;9633;50.980;13.850;2023-08-24T00:37:22;7.33;;;6.73;;
18999;SDS011;9633;50.980;13.850;2023-08-24T00:38:54;8.20;;;7.50;;
18999;SDS011;9633;50.980;13.850;2023-08-24T00:40:28;8.00;;;7.33;;
18999;SDS011;9633;50.980;13.850;2023-08-24T00:42:00;8.27;;;7.47;;
18999;SDS011;9633;50.980;13.850;2023-08-24T00:43:34;8.20;;;7.40;;
18999;SDS011;9633;50.980;13.850;2023-08-24T00:45:08;7.87;;;7.17;;
18999;SDS011;9633;50.980;13.850;2023-08-24T00:46:43;7.47;;;6.87;;
18999;SDS011;9633;50.980;13.850;2023-08-24T00:48:16;8.30;;;7.53;;
18999;SDS011;9633;50.980;13.850;2023-08-24T00:49:50;8.20;;;7.40;;
18999;SDS011;9633;50.980;13.850;2023-08-24T00:51:22;8.07;;;7.37;;
18999;SDS011;9633;50.980;13.850;2023-08-24T00:52:57;8.47;;;7.67;;
18999;SDS011;9633;50.980;13.850;2023-08-24T00:54:30;7.87;;;7.17;;
18999;SDS011;9633;50.980;13.850;2023-08-24T00:56:03;8.90;;;8.20;;
18999;SDS011;9633;50.980;13.850;2023-08-24T00:57:37;9.23;;;7.70;;
18999;SDS011;9633;50.980;13.850;2023-08-24T00:59:12;8.67;;;7.90;;
18999;SDS011;9633;50.980;13.850;2023-08-24T01:00:45;8.83;;;8.03;;
18999;SDS011;9633;50.980;13.850;2023-08-24T01:02:19;8.37;;;7.53;;
18999;SDS011;9633;50.980;13.850;2023-08-24T01:03:52;8.83;;;8.00;;
18999;SDS011;9633;50.980;13.850;2023-08-24T01:05:25;8.27;;;7.47;;
18999;SDS011;9633;50.980;13.850;2023-08-24T01:06:58;8.40;;;7.60;;
18999;SDS011;9633;50.980;13.850;2023-08-24T01:08:30;8.40;;;7.60;;
18999;SDS011;9633;50.980;13.850;2023-08-24T01:10:05;8.40;;;7.60;;
18999;SDS011;9633;50.980;13.850;2023-08-24T01:11:42;7.87;;;7.17;;
18999;SDS011;9633;50.980;13.850;2023-08-24T01:13:21;8.60;;;7.80;;
18999;SDS011;9633;50.980;13.850;2023-08-24T01:15:02;8.03;;;7.33;;
18999;SDS011;9633;50.980;13.850;2023-08-24T01:16:40;7.83;;;7.13;;
18999;SDS011;9633;50.980;13.850;2023-08-24T01:18:17;8.13;;;6.90;;
18999;SDS011;9633;50.980;13.850;2023-08-24T01:19:52;8.43;;;7.63;;
18999;SDS011;9633;50.980;13.850;2023-08-24T01:21:25;8.03;;;7.30;;
18999;SDS011;9633;50.980;13.850;2023-08-24T01:23:04;8.00;;;7.23;;
18999;SDS011;9633;50.980;13.850;2023-08-24T01:24:47;9.00;;;7.80;;
18999;SDS011;9633;50.980;13.850;2023-08-24T01:26:26;8.40;;;7.70;;
18999;SDS011;9633;50.980;13.850;2023-08-24T01:28:01;9.70;;;8.70;;
18999;SDS011;9633;50.980;13.850;2023-08-24T01:29:35;10.13;;;9.00;;
18999;SDS011;9633;50.980;13.850;2023-08-24T01:31:10;10.47;;;7.83;;
18999;SDS011;9633;50.980;13.850;2023-08-24T01:32:44;9.13;;;7.93;;
18999;SDS011;9633;50.980;13.850;2023-08-24T01:34:18;9.27;;;8.37;;
18999;SDS011;9633;50.980;13.850;2023-08-24T01:35:50;9.60;;;8.60;;
18999;SDS011;9633;50.980;13.850;2023-08-24T01:37:23;8.93;;;8.13;;
18999;SDS011;9633;50.980;13.850;2023-08-24T01:38:58;9.57;;;8.77;;
18999;SDS011;9633;50.980;13.850;2023-08-24T01:40:42;9.67;;;8.67;;
18999;SDS011;9633;50.980;13.850;2023-08-24T01:42:26;9.30;;;8.27;;
18999;SDS011;9633;50.980;13.850;2023-08-24T01:44:03;9.57;;;8.60;;
18999;SDS011;9633;50.980;13.850;2023-08-24T01:45:39;8.97;;;8.07;;
18999;SDS011;9633;50.980;13.850;2023-08-24T01:47:13;8.43;;;7.63;;
18999;SDS011;9633;50.980;13.850;2023-08-24T01:48:47;8.20;;;7.50;;
18999;SDS011;9633;50.980;13.850;2023-08-24T01:50:21;8.87;;;8.00;;
18999;SDS011;9633;50.980;13.850;2023-08-24T01:51:54;8.97;;;8.07;;
18999;SDS011;9633;50.980;13.850;2023-08-24T01:53:27;8.90;;;8.10;;
18999;SDS011;9633;50.980;13.850;2023-08-24T01:55:03;8.97;;;8.17;;
18999;SDS011;9633;50.980;13.850;2023-08-24T01:56:36;9.13;;;8.23;;
18999;SDS011;9633;50.980;13.850;2023-08-24T01:58:10;9.57;;;8.77;;
18999;SDS011;9633;50.980;13.850;2023-08-24T01:59:43;8.83;;;7.90;;
18999;SDS011;9633;50.980;13.850;2023-08-24T02:01:16;9.20;;;8.30;;
18999;SDS011;9633;50.980;13.850;2023-08-24T02:02:48;9.20;;;7.83;;
18999;SDS011;9633;50.980;13.850;2023-08-24T02:04:21;9.63;;;8.77;;
18999;SDS011;9633;50.980;13.850;2023-08-24T02:05:54;9.43;;;8.53;;
18999;SDS011;9633;50.980;13.850;2023-08-24T02:07:27;9.37;;;8.47;;
18999;SDS011;9633;50.980;13.850;2023-08-24T02:09:00;8.73;;;7.93;;
18999;SDS011;9633;50.980;13.850;2023-08-24T02:10:33;9.50;;;8.10;;
18999;SDS011;9633;50.980;13.850;2023-08-24T02:12:08;9.07;;;8.27;;
18999;SDS011;9633;50.980;13.850;2023-08-24T02:13:42;8.50;;;7.70;;
18999;SDS011;9633;50.980;13.850;2023-08-24T02:15:15;8.03;;;7.33;;
18999;SDS011;9633;50.980;13.850;2023-08-24T02:16:48;8.20;;;7.50;;
18999;SDS011;9633;50.980;13.850;2023-08-24T02:18:20;8.20;;;7.50;;
18999;SDS011;9633;50.980;13.850;2023-08-24T02:19:54;7.70;;;7.00;;
18999;SDS011;9633;50.980;13.850;2023-08-24T02:21:26;7.73;;;7.03;;
18999;SDS011;9633;50.980;13.850;2023-08-24T02:22:59;8.63;;;7.67;;
18999;SDS011;9633;50.980;13.850;2023-08-24T02:24:31;7.70;;;7.00;;
18999;SDS011;9633;50.980;13.850;2023-08-24T02:26:05;9.93;;;7.57;;
18999;SDS011;9633;50.980;13.850;2023-08-24T02:27:37;8.80;;;7.90;;
18999;SDS011;9633;50.980;13.850;2023-08-24T02:29:12;8.93;;;8.13;;
18999;SDS011;9633;50.980;13.850;2023-08-24T02:30:45;8.83;;;8.03;;
18999;SDS011;9633;50.980;13.850;2023-08-24T02:32:18;9.17;;;8.37;;
18999;SDS011;9633;50.980;13.850;2023-08-24T02:33:51;8.07;;;7.37;;
18999;SDS011;9633;50.980;13.850;2023-08-24T02:35:23;9.57;;;8.07;;
18999;SDS011;9633;50.980;13.850;2023-08-24T02:36:56;9.03;;;8.07;;
18999;SDS011;9633;50.980;13.850;2023-08-24T02:38:29;8.43;;;7.63;;
18999;SDS011;9633;50.980;13.850;2023-08-24T02:40:04;8.53;;;7.83;;
18999;SDS011;9633;50.980;13.850;2023-08-24T02:41:37;8.40;;;7.60;;
18999;SDS011;9633;50.980;13.850;2023-08-24T02:43:10;9.57;;;8.73;;
18999;SDS011;9633;50.980;13.850;2023-08-24T02:44:45;10.93;;;8.50;;
18999;SDS011;9633;50.980;13.850;2023-08-24T02:46:18;9.23;;;8.30;;
18999;SDS011;9633;50.980;13.850;2023-08-24T02:47:54;9.37;;;8.47;;
18999;SDS011;9633;50.980;13.850;2023-08-24T02:49:28;8.07;;;7.27;;
18999;SDS011;9633;50.980;13.850;2023-08-24T02:51:02;8.67;;;7.87;;
18999;SDS011;9633;50.980;13.850;2023-08-24T02:52:36;8.23;;;7.47;;
18999;SDS011;9633;50.980;13.850;2023-08-24T02:54:09;8.57;;;7.77;;
18999;SDS011;9633;50.980;13.850;2023-08-24T02:55:42;10.23;;;8.00;;
18999;SDS011;9633;50.980;13.850;2023-08-24T02:57:14;8.83;;;7.60;;
18999;SDS011;9633;50.980;13.850;2023-08-24T02:58:47;9.67;;;8.23;;
18999;SDS011;9633;50.980;13.850;2023-08-24T03:00:21;8.33;;;7.67;;
18999;SDS011;9633;50.980;13.850;2023-08-24T03:01:54;8.30;;;7.60;;
18999;SDS011;9633;50.980;13.850;2023-08-24T03:03:26;9.20;;;8.30;;
18999;SDS011;9633;50.980;13.850;2023-08-24T03:05:00;8.90;;;8.10;;
18999;SDS011;9633;50.980;13.850;2023-08-24T03:06:32;9.30;;;8.40;;
18999;SDS011;9633;50.980;13.850;2023-08-24T03:08:06;10.17;;;7.97;;
18999;SDS011;9633;50.980;13.850;2023-08-24T03:09:38;8.33;;;7.57;;
18999;SDS011;9633;50.980;13.850;2023-08-24T03:11:11;9.10;;;7.80;;
18999;SDS011;9633;50.980;13.850;2023-08-24T03:12:43;9.03;;;8.23;;
18999;SDS011;9633;50.980;13.850;2023-08-24T03:14:17;8.37;;;7.63;;
18999;SDS011;9633;50.980;13.850;2023-08-24T03:15:53;8.33;;;7.50;;
18999;SDS011;9633;50.980;13.850;2023-08-24T03:17:27;9.47;;;7.97;;
18999;SDS011;9633;50.980;13.850;2023-08-24T03:19:00;10.73;;;8.33;;
18999;SDS011;9633;50.980;13.850;2023-08-24T03:20:33;9.33;;;8.53;;
18999;SDS011;9633;50.980;13.850;2023-08-24T03:22:06;8.57;;;7.70;;
18999;SDS011;9633;50.980;13.850;2023-08-24T03:23:39;9.50;;;7.80;;
18999;SDS011;9633;50.980;13.850;2023-08-24T03:25:11;9.93;;;8.10;;
18999;SDS011;9633;50.980;13.850;2023-08-24T03:26:44;8.20;;;7.40;;
18999;SDS011;9633;50.980;13.850;2023-08-24T03:28:17;8.40;;;7.70;;
18999;SDS011;9633;50.980;13.850;2023-08-24T03:29:51;8.77;;;8.03;;
18999;SDS011;9633;50.980;13.850;2023-08-24T03:31:27;9.43;;;8.57;;
18999;SDS011;9633;50.980;13.850;2023-08-24T03:32:59;9.50;;;8.33;;
18999;SDS011;9633;50.980;13.850;2023-08-24T03:34:33;9.20;;;8.30;;
18999;SDS011;9633;50.980;13.850;2023-08-24T03:36:06;9.07;;;8.27;;
18999;SDS011;9633;50.980;13.850;2023-08-24T03:37:39;8.70;;;8.00;;
18999;SDS011;9633;50.980;13.850;2023-08-24T03:39:11;8.77;;;7.97;;
18999;SDS011;9633;50.980;13.850;2023-08-24T03:40:48;8.77;;;7.87;;
18999;SDS011;9633;50.980;13.850;2023-08-24T03:42:20;9.13;;;8.33;;
18999;SDS011;9633;50.980;13.850;2023-08-24T03:43:53;9.43;;;8.53;;
18999;SDS011;9633;50.980;13.850;2023-08-24T03:45:26;8.83;;;8.13;;
18999;SDS011;9633;50.980;13.850;2023-08-24T03:47:00;9.27;;;8.43;;
18999;SDS011;9633;50.980;13.850;2023-08-24T03:48:33;8.50;;;7.70;;
18999;SDS011;9633;50.980;13.850;2023-08-24T03:50:06;9.07;;;8.27;;
18999;SDS011;9633;50.980;13.850;2023-08-24T03:51:40;9.30;;;8.50;;
18999;SDS011;9633;50.980;13.850;2023-08-24T03:53:13;9.07;;;8.17;;
18999;SDS011;9633;50.980;13.850;2023-08-24T03:54:45;8.63;;;7.87;;
18999;SDS011;9633;50.980;13.850;2023-08-24T03:56:18;9.23;;;8.27;;
18999;SDS011;9633;50.980;13.850;2023-08-24T03:57:50;9.63;;;8.77;;
18999;SDS011;9633;50.980;13.850;2023-08-24T03:59:29;9.83;;;9.00;;
18999;SDS011;9633;50.980;13.850;2023-08-24T04:01:02;9.33;;;8.43;;
18999;SDS011;9633;50.980;13.850;2023-08-24T04:02:37;9.27;;;8.40;;
18999;SDS011;9633;50.980;13.850;2023-08-24T04:04:09;9.50;;;8.70;;
18999;SDS011;9633;50.980;13.850;2023-08-24T04:05:43;9.87;;;8.97;;
18999;SDS011;9633;50.980;13.850;2023-08-24T04:07:15;9.63;;;8.73;;
18999;SDS011;9633;50.980;13.850;2023-08-24T04:08:51;9.00;;;8.20;;
18999;SDS011;9633;50.980;13.850;2023-08-24T04:10:25;9.67;;;8.80;;
18999;SDS011;9633;50.980;13.850;2023-08-24T04:11:57;10.07;;;9.07;;
18999;SDS011;9633;50.980;13.850;2023-08-24T04:13:30;9.77;;;8.47;;
18999;SDS011;9633;50.980;13.850;2023-08-24T04:15:03;10.03;;;9.07;;
18999;SDS011;9633;50.980;13.850;2023-08-24T04:16:37;9.53;;;8.73;;
18999;SDS011;9633;50.980;13.850;2023-08-24T04:18:10;9.47;;;8.57;;
18999;SDS011;9633;50.980;13.850;2023-08-24T04:19:44;9.30;;;8.40;;
18999;SDS011;9633;50.980;13.850;2023-08-24T04:21:16;9.80;;;8.90;;
18999;SDS011;9633;50.980;13.850;2023-08-24T04:22:49;8.20;;;7.50;;
18999;SDS011;9633;50.980;13.850;2023-08-24T04:24:22;8.77;;;7.90;;
18999;SDS011;9633;50.980;13.850;2023-08-24T04:25:56;9.27;;;8.40;;
18999;SDS011;9633;50.980;13.850;2023-08-24T04:27:29;8.80;;;8.00;;
18999;SDS011;9633;50.980;13.850;2023-08-24T04:29:02;9.20;;;8.40;;
18999;SDS011;9633;50.980;13.850;2023-08-24T04:30:35;8.90;;;8.00;;
18999;SDS011;9633;50.980;13.850;2023-08-24T04:32:08;9.17;;;8.37;;
18999;SDS011;9633;50.980;13.850;2023-08-24T04:33:42;9.07;;;7.90;;
18999;SDS011;9633;50.980;13.850;2023-08-24T04:35:16;9.83;;;7.80;;
18999;SDS011;9633;50.980;13.850;2023-08-24T04:36:48;9.87;;;8.80;;
18999;SDS011;9633;50.980;13.850;2023-08-24T04:38:21;7.87;;;7.23;;
18999;SDS011;9633;50.980;13.850;2023-08-24T04:39:54;9.30;;;8.50;;
18999;SDS011;9633;50.980;13.850;2023-08-24T04:41:27;9.17;;;8.37;;
18999;SDS011;9633;50.980;13.850;2023-08-24T04:43:00;8.63;;;7.90;;
18999;SDS011;9633;50.980;13.850;2023-08-24T04:44:32;8.63;;;7.83;;
18999;SDS011;9633;50.980;13.850;2023-08-24T04:46:05;8.70;;;7.90;;
18999;SDS011;9633;50.980;13.850;2023-08-24T04:47:39;9.83;;;7.97;;
18999;SDS011;9633;50.980;13.850;2023-08-24T04:49:12;14.50;;;8.57;;
18999;SDS011;9633;50.980;13.850;2023-08-24T04:50:46;7.87;;;7.17;;
18999;SDS011;9633;50.980;13.850;2023-08-24T04:52:18;8.70;;;7.80;;
18999;SDS011;9633;50.980;13.850;2023-08-24T04:53:51;8.00;;;7.30;;
18999;SDS011;9633;50.980;13.850;2023-08-24T04:55:23;8.63;;;7.47;;
18999;SDS011;9633;50.980;13.850;2023-08-24T04:56:57;8.23;;;7.20;;
18999;SDS011;9633;50.980;13.850;2023-08-24T04:58:32;7.07;;;6.47;;
18999;SDS011;9633;50.980;13.850;2023-08-24T05:00:06;8.07;;;7.37;;
18999;SDS011;9633;50.980;13.850;2023-08-24T05:01:39;7.67;;;6.87;;
18999;SDS011;9633;50.980;13.850;2023-08-24T05:03:12;7.77;;;7.07;;
18999;SDS011;9633;50.980;13.850;2023-08-24T05:04:46;8.83;;;6.60;;
18999;SDS011;9633;50.980;13.850;2023-08-24T05:06:20;7.73;;;7.03;;
18999;SDS011;9633;50.980;13.850;2023-08-24T05:07:53;10.47;;;6.50;;
18999;SDS011;9633;50.980;13.850;2023-08-24T05:09:27;6.67;;;5.77;;
18999;SDS011;9633;50.980;13.850;2023-08-24T05:10:59;6.80;;;6.10;;
18999;SDS011;9633;50.980;13.850;2023-08-24T05:12:32;6.33;;;5.23;;
18999;SDS011;9633;50.980;13.850;2023-08-24T05:14:06;6.47;;;5.47;;
18999;SDS011;9633;50.980;13.850;2023-08-24T05:15:39;5.80;;;5.17;;
18999;SDS011;9633;50.980;13.850;2023-08-24T05:17:12;6.43;;;4.90;;
18999;SDS011;9633;50.980;13.850;2023-08-24T05:18:45;5.73;;;5.23;;
18999;SDS011;9633;50.980;13.850;2023-08-24T05:20:19;7.13;;;5.80;;
18999;SDS011;9633;50.980;13.850;2023-08-24T05:21:52;6.33;;;5.70;;
18999;SDS011;9633;50.980;13.850;2023-08-24T05:23:26;7.43;;;6.23;;
18999;SDS011;9633;50.980;13.850;2023-08-24T05:24:58;7.60;;;6.23;;
18999;SDS011;9633;50.980;13.850;2023-08-24T05:26:31;9.40;;;6.43;;
18999;SDS011;9633;50.980;13.850;2023-08-24T05:28:03;6.80;;;6.07;;
18999;SDS011;9633;50.980;13.850;2023-08-24T05:29:38;7.33;;;6.47;;
18999;SDS011;9633;50.980;13.850;2023-08-24T05:31:10;6.63;;;6.07;;
18999;SDS011;9633;50.980;13.850;2023-08-24T05:32:43;7.27;;;6.47;;
18999;SDS011;9633;50.980;13.850;2023-08-24T05:34:15;7.10;;;6.50;;
18999;SDS011;9633;50.980;13.850;2023-08-24T05:35:50;7.20;;;6.37;;
18999;SDS011;9633;50.980;13.850;2023-08-24T05:37:23;6.90;;;6.03;;
18999;SDS011;9633;50.980;13.850;2023-08-24T05:38:56;7.53;;;6.33;;
18999;SDS011;9633;50.980;13.850;2023-08-24T05:40:33;7.33;;;6.20;;
18999;SDS011;9633;50.980;13.850;2023-08-24T05:42:06;6.67;;;6.07;;
18999;SDS011;9633;50.980;13.850;2023-08-24T05:43:39;7.03;;;5.63;;
18999;SDS011;9633;50.980;13.850;2023-08-24T05:45:13;6.10;;;5.57;;
18999;SDS011;9633;50.980;13.850;2023-08-24T05:46:46;5.87;;;5.40;;
18999;SDS011;9633;50.980;13.850;2023-08-24T05:48:19;6.90;;;5.30;;
18999;SDS011;9633;50.980;13.850;2023-08-24T05:49:51;7.93;;;5.47;;
18999;SDS011;9633;50.980;13.850;2023-08-24T05:51:26;7.17;;;5.10;;
18999;SDS011;9633;50.980;13.850;2023-08-24T05:52:59;6.97;;;4.87;;
18999;SDS011;9633;50.980;13.850;2023-08-24T05:54:31;5.30;;;4.60;;
18999;SDS011;9633;50.980;13.850;2023-08-24T05:56:05;7.10;;;4.70;;
18999;SDS011;9633;50.980;13.850;2023-08-24T05:57:37;7.27;;;5.10;;
18999;SDS011;9633;50.980;13.850;2023-08-24T05:59:10;5.50;;;4.83;;
18999;SDS011;9633;50.980;13.850;2023-08-24T06:00:42;6.47;;;4.80;;
18999;SDS011;9633;50.980;13.850;2023-08-24T06:02:16;5.80;;;5.20;;
18999;SDS011;9633;50.980;13.850;2023-08-24T06:03:49;8.33;;;4.90;;
18999;SDS011;9633;50.980;13.850;2023-08-24T06:05:23;5.23;;;4.73;;
18999;SDS011;9633;50.980;13.850;2023-08-24T06:06:56;5.00;;;4.60;;
18999;SDS011;9633;50.980;13.850;2023-08-24T06:08:30;6.20;;;4.90;;
18999;SDS011;9633;50.980;13.850;2023-08-24T06:10:02;6.60;;;4.97;;
18999;SDS011;9633;50.980;13.850;2023-08-24T06:11:37;5.83;;;4.60;;
18999;SDS011;9633;50.980;13.850;2023-08-24T06:13:09;5.47;;;4.77;;
18999;SDS011;9633;50.980;13.850;2023-08-24T06:14:42;6.50;;;4.80;;
18999;SDS011;9633;50.980;13.850;2023-08-24T06:16:14;6.00;;;4.47;;
18999;SDS011;9633;50.980;13.850;2023-08-24T06:17:47;5.23;;;4.43;;
18999;SDS011;9633;50.980;13.850;2023-08-24T06:19:21;5.50;;;4.30;;
18999;SDS011;9633;50.980;13.850;2023-08-24T06:20:55;4.70;;;4.20;;
18999;SDS011;9633;50.980;13.850;2023-08-24T06:22:29;7.93;;;4.20;;
18999;SDS011;9633;50.980;13.850;2023-08-24T06:24:02;5.40;;;4.27;;
18999;SDS011;9633;50.980;13.850;2023-08-24T06:25:35;7.53;;;4.07;;
18999;SDS011;9633;50.980;13.850;2023-08-24T06:27:09;4.80;;;4.13;;
18999;SDS011;9633;50.980;13.850;2023-08-24T06:28:41;10.40;;;8.10;;
18999;SDS011;9633;50.980;13.850;2023-08-24T06:30:14;7.87;;;5.00;;
18999;SDS011;9633;50.980;13.850;2023-08-24T06:31:46;6.87;;;4.57;;
18999;SDS011;9633;50.980;13.850;2023-08-24T06:33:20;9.33;;;4.50;;
18999;SDS011;9633;50.980;13.850;2023-08-24T06:34:53;9.33;;;8.13;;
18999;SDS011;9633;50.980;13.850;2023-08-24T06:36:25;8.60;;;4.90;;
18999;SDS011;9633;50.980;13.850;2023-08-24T06:38:02;7.87;;;4.30;;
18999;SDS011;9633;50.980;13.850;2023-08-24T06:39:35;6.23;;;4.70;;
18999;SDS011;9633;50.980;13.850;2023-08-24T06:41:08;4.63;;;3.67;;
18999;SDS011;9633;50.980;13.850;2023-08-24T06:42:43;4.63;;;3.90;;
18999;SDS011;9633;50.980;13.850;2023-08-24T06:44:16;5.30;;;4.40;;
18999;SDS011;9633;50.980;13.850;2023-08-24T06:45:48;4.53;;;3.93;;
18999;SDS011;9633;50.980;13.850;2023-08-24T06:47:22;4.83;;;4.03;;
18999;SDS011;9633;50.980;13.850;2023-08-24T06:48:54;5.80;;;3.77;;
18999;SDS011;9633;50.980;13.850;2023-08-24T06:50:27;5.27;;;3.80;;
18999;SDS011;9633;50.980;13.850;2023-08-24T06:51:59;3.73;;;3.20;;
18999;SDS011;9633;50.980;13.850;2023-08-24T06:53:36;4.60;;;3.87;;
18999;SDS011;9633;50.980;13.850;2023-08-24T06:55:08;6.80;;;3.70;;
18999;SDS011;9633;50.980;13.850;2023-08-24T06:56:43;7.33;;;4.00;;
18999;SDS011;9633;50.980;13.850;2023-08-24T06:58:15;4.20;;;3.57;;
18999;SDS011;9633;50.980;13.850;2023-08-24T06:59:48;3.80;;;3.47;;
18999;SDS011;9633;50.980;13.850;2023-08-24T07:01:21;4.87;;;3.57;;
18999;SDS011;9633;50.980;13.850;2023-08-24T07:02:55;6.47;;;3.77;;
18999;SDS011;9633;50.980;13.850;2023-08-24T07:04:28;6.23;;;3.60;;
18999;SDS011;9633;50.980;13.850;2023-08-24T07:06:01;5.20;;;3.57;;
18999;SDS011;9633;50.980;13.850;2023-08-24T07:07:35;5.50;;;3.83;;
18999;SDS011;9633;50.980;13.850;2023-08-24T07:09:09;3.93;;;3.57;;
18999;SDS011;9633;50.980;13.850;2023-08-24T07:10:42;4.30;;;3.57;;
18999;SDS011;9633;50.980;13.850;2023-08-24T07:12:14;5.37;;;3.60;;
18999;SDS011;9633;50.980;13.850;2023-08-24T07:13:48;3.93;;;3.30;;
18999;SDS011;9633;50.980;13.850;2023-08-24T07:15:21;3.73;;;3.43;;
18999;SDS011;9633;50.980;13.850;2023-08-24T07:16:54;5.63;;;3.73;;
18999;SDS011;9633;50.980;13.850;2023-08-24T07:18:27;4.37;;;3.47;;
18999;SDS011;9633;50.980;13.850;2023-08-24T07:20:00;5.47;;;3.50;;
18999;SDS011;9633;50.980;13.850;2023-08-24T07:21:32;5.10;;;3.83;;
18999;SDS011;9633;50.980;13.850;2023-08-24T07:23:05;6.60;;;3.50;;
18999;SDS011;9633;50.980;13.850;2023-08-24T07:24:40;6.57;;;3.97;;
18999;SDS011;9633;50.980;13.850;2023-08-24T07:26:16;8.98;;;3.97;;
18999;SDS011;9633;50.980;13.850;2023-08-24T07:27:50;4.68;;;3.42;;
18999;SDS011;9633;50.980;13.850;2023-08-24T07:29:23;4.17;;;3.33;;
18999;SDS011;9633;50.980;13.850;2023-08-24T07:30:56;4.23;;;3.77;;
18999;SDS011;9633;50.980;13.850;2023-08-24T07:32:29;3.90;;;3.47;;
18999;SDS011;9633;50.980;13.850;2023-08-24T07:34:02;5.50;;;3.83;;
18999;SDS011;9633;50.980;13.850;2023-08-24T07:35:36;7.00;;;3.87;;
18999;SDS011;9633;50.980;13.850;2023-08-24T07:37:08;4.37;;;3.37;;
18999;SDS011;9633;50.980;13.850;2023-08-24T07:38:41;6.60;;;3.77;;
18999;SDS011;9633;50.980;13.850;2023-08-24T07:40:15;10.87;;;4.40;;
18999;SDS011;9633;50.980;13.850;2023-08-24T07:41:48;4.20;;;3.30;;
18999;SDS011;9633;50.980;13.850;2023-08-24T07:43:20;3.97;;;3.50;;
18999;SDS011;9633;50.980;13.850;2023-08-24T07:44:54;5.20;;;3.80;;
18999;SDS011;9633;50.980;13.850;2023-08-24T07:46:27;5.70;;;4.00;;
18999;SDS011;9633;50.980;13.850;2023-08-24T07:47:59;4.17;;;3.77;;
18999;SDS011;9633;50.980;13.850;2023-08-24T07:49:32;6.30;;;3.90;;
18999;SDS011;9633;50.980;13.850;2023-08-24T07:51:04;4.10;;;3.70;;
18999;SDS011;9633;50.980;13.850;2023-08-24T07:52:38;5.03;;;4.10;;
18999;SDS011;9633;50.980;13.850;2023-08-24T07:54:10;7.33;;;3.97;;
18999;SDS011;9633;50.980;13.850;2023-08-24T07:55:45;7.07;;;4.13;;
18999;SDS011;9633;50.980;13.850;2023-08-24T07:57:17;5.17;;;3.90;;
18999;SDS011;9633;50.980;13.850;2023-08-24T07:58:50;4.47;;;3.20;;
18999;SDS011;9633;50.980;13.850;2023-08-24T08:00:23;7.90;;;3.60;;
18999;SDS011;9633;50.980;13.850;2023-08-24T08:01:56;7.43;;;3.63;;
18999;SDS011;9633;50.980;13.850;2023-08-24T08:03:30;5.93;;;3.63;;
18999;SDS011;9633;50.980;13.850;2023-08-24T08:05:02;4.67;;;3.37;;
18999;SDS011;9633;50.980;13.850;2023-08-24T08:06:37;4.27;;;3.00;;
18999;SDS011;9633;50.980;13.850;2023-08-24T08:08:10;3.87;;;3.20;;
18999;SDS011;9633;50.980;13.850;2023-08-24T08:09:43;3.90;;;3.13;;
18999;SDS011;9633;50.980;13.850;2023-08-24T08:11:18;3.33;;;2.83;;
18999;SDS011;9633;50.980;13.850;2023-08-24T08:12:50;7.77;;;3.30;;
18999;SDS011;9633;50.980;13.850;2023-08-24T08:14:24;3.57;;;3.23;;
18999;SDS011;9633;50.980;13.850;2023-08-24T08:16:00;4.60;;;2.80;;
18999;SDS011;9633;50.980;13.850;2023-08-24T08:17:35;3.27;;;2.90;;
18999;SDS011;9633;50.980;13.850;2023-08-24T08:19:09;8.33;;;3.20;;
18999;SDS011;9633;50.980;13.850;2023-08-24T08:20:42;6.53;;;2.60;;
18999;SDS011;9633;50.980;13.850;2023-08-24T08:22:15;8.30;;;2.73;;
18999;SDS011;9633;50.980;13.850;2023-08-24T08:23:48;3.80;;;2.77;;
18999;SDS011;9633;50.980;13.850;2023-08-24T08:25:21;3.70;;;2.73;;
18999;SDS011;9633;50.980;13.850;2023-08-24T08:26:56;2.85;;;2.60;;
18999;SDS011;9633;50.980;13.850;2023-08-24T08:28:28;8.02;;;3.17;;
18999;SDS011;9633;50.980;13.850;2023-08-24T08:30:01;3.88;;;2.83;;
18999;SDS011;9633;50.980;13.850;2023-08-24T08:31:36;4.43;;;2.77;;
18999;SDS011;9633;50.980;13.850;2023-08-24T08:33:10;4.50;;;2.83;;
18999;SDS011;9633;50.980;13.850;2023-08-24T08:34:42;3.20;;;2.90;;
18999;SDS011;9633;50.980;13.850;2023-08-24T08:36:15;3.17;;;2.80;;
18999;SDS011;9633;50.980;13.850;2023-08-24T08:37:47;4.57;;;2.83;;
18999;SDS011;9633;50.980;13.850;2023-08-24T08:39:22;3.60;;;2.75;;
18999;SDS011;9633;50.980;13.850;2023-08-24T08:40:55;5.22;;;3.20;;
18999;SDS011;9633;50.980;13.850;2023-08-24T08:42:34;5.70;;;2.95;;
18999;SDS011;9633;50.980;13.850;2023-08-24T08:44:08;4.88;;;2.60;;
18999;SDS011;9633;50.980;13.850;2023-08-24T08:45:44;3.05;;;2.55;;
18999;SDS011;9633;50.980;13.850;2023-08-24T08:47:16;4.45;;;2.90;;
18999;SDS011;9633;50.980;13.850;2023-08-24T08:48:51;5.28;;;2.80;;
18999;SDS011;9633;50.980;13.850;2023-08-24T08:50:25;3.22;;;2.63;;
18999;SDS011;9633;50.980;13.850;2023-08-24T08:52:01;5.90;;;2.92;;
18999;SDS011;9633;50.980;13.850;2023-08-24T08:53:35;3.30;;;2.28;;
18999;SDS011;9633;50.980;13.850;2023-08-24T08:55:08;4.75;;;2.35;;
18999;SDS011;9633;50.980;13.850;2023-08-24T08:56:42;2.85;;;2.50;;
18999;SDS011;9633;50.980;13.850;2023-08-24T08:58:17;2.88;;;2.38;;
18999;SDS011;9633;50.980;13.850;2023-08-24T08:59:50;2.78;;;2.42;;
18999;SDS011;9633;50.980;13.850;2023-08-24T09:01:24;3.22;;;2.25;;
18999;SDS011;9633;50.980;13.850;2023-08-24T09:02:58;2.58;;;2.13;;
18999;SDS011;9633;50.980;13.850;2023-08-24T09:04:32;4.72;;;2.40;;
18999;SDS011;9633;50.980;13.850;2023-08-24T09:06:05;3.70;;;2.40;;
18999;SDS011;9633;50.980;13.850;2023-08-24T09:07:39;3.22;;;2.00;;
18999;SDS011;9633;50.980;13.850;2023-08-24T09:09:11;3.67;;;2.30;;
18999;SDS011;9633;50.980;13.850;2023-08-24T09:10:45;2.30;;;2.00;;
18999;SDS011;9633;50.980;13.850;2023-08-24T09:12:17;4.03;;;2.50;;
18999;SDS011;9633;50.980;13.850;2023-08-24T09:13:52;2.55;;;2.35;;
18999;SDS011;9633;50.980;13.850;2023-08-24T09:15:24;3.60;;;2.50;;
18999;SDS011;9633;50.980;13.850;2023-08-24T09:17:00;4.50;;;2.05;;
18999;SDS011;9633;50.980;13.850;2023-08-24T09:18:36;3.70;;;2.33;;
18999;SDS011;9633;50.980;13.850;2023-08-24T09:20:10;2.17;;;1.95;;
18999;SDS011;9633;50.980;13.850;2023-08-24T09:21:43;3.13;;;2.30;;
18999;SDS011;9633;50.980;13.850;2023-08-24T09:23:19;3.47;;;2.20;;